sensor_id;sensor_type;location;lat;lon;timestamp;pressure;altitude;pressure_sealevel;temperature;humidity
11345;BME280;5727;42.600;23.028;2022-09-20T00:02:18;93759.28;;;11.45;100.00
11345;BME280;5727;42.600;23.028;2022-09-20T00:04:46;93763.22;;;11.39;100.00
11345;BME280;5727;42.600;23.028;2022-09-20T00:07:13;93764.50;;;11.33;100.00
11345;BME280;5727;42.600;23.028;2022-09-20T00:09:40;93772.03;;;11.22;100.00
11345;BME280;5727;42.600;23.028;2022-09-20T00:12:08;93774.56;;;11.19;100.00
11345;BME280;5727;42.600;23.028;2022-09-20T00:14:35;93769.53;;;11.14;100.00
11345;BME280;5727;42.600;23.028;2022-09-20T00:17:02;93766.47;;;11.12;100.00
11345;BME280;5727;42.600;23.028;2022-09-20T00:19:28;93778.97;;;10.82;100.00
11345;BME280;5727;42.600;23.028;2022-09-20T00:21:55;93774.84;;;10.48;100.00
11345;BME280;5727;42.600;23.028;2022-09-20T00:24:22;93774.91;;;10.40;100.00
11345;BME280;5727;42.600;23.028;2022-09-20T00:26:49;93774.91;;;10.40;100.00
11345;BME280;5727;42.600;23.028;2022-09-20T00:29:17;93778.97;;;10.37;100.00
11345;BME280;5727;42.600;23.028;2022-09-20T00:31:44;93783.78;;;10.47;100.00
11345;BME280;5727;42.600;23.028;2022-09-20T00:34:11;93779.19;;;10.44;100.00
11345;BME280;5727;42.600;23.028;2022-09-20T00:36:55;93769.72;;;10.52;100.00
11345;BME280;5727;42.600;23.028;2022-09-20T00:39:22;93768.78;;;10.56;100.00
11345;BME280;5727;42.600;23.028;2022-09-20T00:41:49;93767.91;;;10.64;100.00
11345;BME280;5727;42.600;23.028;2022-09-20T00:44:48;93767.50;;;10.74;100.00
11345;BME280;5727;42.600;23.028;2022-09-20T00:47:22;93761.28;;;10.79;100.00
11345;BME280;5727;42.600;23.028;2022-09-20T00:49:53;93762.69;;;10.76;100.00
11345;BME280;5727;42.600;23.028;2022-09-20T00:52:22;93766.19;;;10.80;100.00
11345;BME280;5727;42.600;23.028;2022-09-20T00:54:49;93771.44;;;10.80;100.00
11345;BME280;5727;42.600;23.028;2022-09-20T00:57:16;93767.66;;;10.57;100.00
11345;BME280;5727;42.600;23.028;2022-09-20T00:59:45;93762.63;;;10.52;100.00
11345;BME280;5727;42.600;23.028;2022-09-20T01:02:17;93765.00;;;10.45;100.00
11345;BME280;5727;42.600;23.028;2022-09-20T01:04:45;93777.03;;;10.46;100.00
11345;BME280;5727;42.600;23.028;2022-09-20T01:07:15;93765.00;;;10.45;100.00
11345;BME280;5727;42.600;23.028;2022-09-20T01:09:43;93764.09;;;10.41;100.00
11345;BME280;5727;42.600;23.028;2022-09-20T01:12:13;93763.38;;;10.41;100.00
11345;BME280;5727;42.600;23.028;2022-09-20T01:14:42;93761.63;;;10.45;100.00
11345;BME280;5727;42.600;23.028;2022-09-20T01:17:10;93754.06;;;10.43;100.00
11345;BME280;5727;42.600;23.028;2022-09-20T01:19:43;93759.91;;;10.28;100.00
11345;BME280;5727;42.600;23.028;2022-09-20T01:22:17;93753.78;;;10.24;100.00
11345;BME280;5727;42.600;23.028;2022-09-20T01:24:52;93760.91;;;10.24;100.00
11345;BME280;5727;42.600;23.028;2022-09-20T01:27:39;93753.78;;;10.24;100.00
11345;BME280;5727;42.600;23.028;2022-09-20T01:30:08;93762.09;;;10.26;100.00
11345;BME280;5727;42.600;23.028;2022-09-20T01:32:44;93763.97;;;10.26;100.00
11345;BME280;5727;42.600;23.028;2022-09-20T01:35:18;93770.41;;;10.28;100.00
11345;BME280;5727;42.600;23.028;2022-09-20T01:38:04;93770.09;;;10.30;100.00
11345;BME280;5727;42.600;23.028;2022-09-20T01:40:39;93774.78;;;10.36;100.00
11345;BME280;5727;42.600;23.028;2022-09-20T01:43:15;93769.56;;;10.36;100.00
11345;BME280;5727;42.600;23.028;2022-09-20T01:45:46;93764.00;;;10.38;100.00
11345;BME280;5727;42.600;23.028;2022-09-20T01:48:20;93758.88;;;10.41;100.00
11345;BME280;5727;42.600;23.028;2022-09-20T01:51:15;93768.59;;;10.41;100.00
11345;BME280;5727;42.600;23.028;2022-09-20T02:00:12;93751.59;;;10.14;100.00
11345;BME280;5727;42.600;23.028;2022-09-20T02:03:06;93743.88;;;10.09;100.00
11345;BME280;5727;42.600;23.028;2022-09-20T02:12:23;93758.91;;;10.00;100.00
11345;BME280;5727;42.600;23.028;2022-09-20T02:14:59;93753.22;;;9.98;100.00
11345;BME280;5727;42.600;23.028;2022-09-20T02:17:34;93753.09;;;9.94;100.00
11345;BME280;5727;42.600;23.028;2022-09-20T02:20:22;93756.22;;;9.88;100.00
11345;BME280;5727;42.600;23.028;2022-09-20T02:23:11;93757.09;;;9.71;100.00
11345;BME280;5727;42.600;23.028;2022-09-20T02:26:02;93754.94;;;9.73;100.00
11345;BME280;5727;42.600;23.028;2022-09-20T02:28:42;93754.81;;;9.70;100.00
11345;BME280;5727;42.600;23.028;2022-09-20T02:31:26;93762.84;;;9.65;100.00
11345;BME280;5727;42.600;23.028;2022-09-20T02:34:16;93762.84;;;9.65;100.00
11345;BME280;5727;42.600;23.028;2022-09-20T02:37:02;93753.19;;;9.57;100.00
11345;BME280;5727;42.600;23.028;2022-09-20T02:39:35;93755.34;;;9.55;100.00
11345;BME280;5727;42.600;23.028;2022-09-20T02:42:08;93758.16;;;9.50;100.00
11345;BME280;5727;42.600;23.028;2022-09-20T02:44:47;93762.81;;;9.44;100.00
11345;BME280;5727;42.600;23.028;2022-09-20T02:47:24;93755.16;;;9.39;100.00
11345;BME280;5727;42.600;23.028;2022-09-20T02:50:14;93759.03;;;9.33;100.00
11345;BME280;5727;42.600;23.028;2022-09-20T02:52:53;93760.41;;;9.31;100.00
11345;BME280;5727;42.600;23.028;2022-09-20T02:55:29;93751.66;;;9.27;100.00
11345;BME280;5727;42.600;23.028;2022-09-20T02:58:08;93762.34;;;9.13;100.00
11345;BME280;5727;42.600;23.028;2022-09-20T03:00:43;93760.47;;;8.84;100.00
11345;BME280;5727;42.600;23.028;2022-09-20T03:03:20;93759.22;;;8.90;100.00
11345;BME280;5727;42.600;23.028;2022-09-20T03:06:03;93764.44;;;8.90;100.00
11345;BME280;5727;42.600;23.028;2022-09-20T03:08:36;93774.31;;;8.76;100.00
11345;BME280;5727;42.600;23.028;2022-09-20T03:11:12;93773.88;;;8.66;100.00
11345;BME280;5727;42.600;23.028;2022-09-20T03:13:58;93768.81;;;8.69;100.00
11345;BME280;5727;42.600;23.028;2022-09-20T03:16:34;93773.38;;;8.72;100.00
11345;BME280;5727;42.600;23.028;2022-09-20T03:19:14;93776.47;;;8.74;100.00
11345;BME280;5727;42.600;23.028;2022-09-20T03:21:51;93775.91;;;8.60;100.00
11345;BME280;5727;42.600;23.028;2022-09-20T03:24:35;93769.28;;;8.63;100.00
11345;BME280;5727;42.600;23.028;2022-09-20T03:27:10;93772.78;;;8.67;100.00
11345;BME280;5727;42.600;23.028;2022-09-20T03:29:50;93779.72;;;8.63;100.00
11345;BME280;5727;42.600;23.028;2022-09-20T03:32:29;93780.94;;;8.65;100.00
11345;BME280;5727;42.600;23.028;2022-09-20T03:35:04;93782.50;;;8.66;100.00
11345;BME280;5727;42.600;23.028;2022-09-20T03:37:48;93784.47;;;8.69;100.00
11345;BME280;5727;42.600;23.028;2022-09-20T03:43:40;93777.13;;;8.54;100.00
11345;BME280;5727;42.600;23.028;2022-09-20T03:46:16;93778.38;;;8.57;100.00
11345;BME280;5727;42.600;23.028;2022-09-20T03:49:01;93773.44;;;8.55;100.00
11345;BME280;5727;42.600;23.028;2022-09-20T03:51:35;93778.50;;;8.52;100.00
11345;BME280;5727;42.600;23.028;2022-09-20T03:54:51;93777.00;;;8.51;100.00
11345;BME280;5727;42.600;23.028;2022-09-20T03:57:43;93780.84;;;8.45;100.00
11345;BME280;5727;42.600;23.028;2022-09-20T04:00:20;93790.19;;;8.46;100.00
11345;BME280;5727;42.600;23.028;2022-09-20T04:03:09;93795.59;;;8.41;100.00
11345;BME280;5727;42.600;23.028;2022-09-20T04:05:47;93793.28;;;8.39;100.00
11345;BME280;5727;42.600;23.028;2022-09-20T04:08:32;93794.34;;;8.38;100.00
11345;BME280;5727;42.600;23.028;2022-09-20T04:11:09;93790.22;;;8.37;100.00
11345;BME280;5727;42.600;23.028;2022-09-20T04:13:45;93786.50;;;8.38;100.00
11345;BME280;5727;42.600;23.028;2022-09-20T04:16:22;93798.19;;;8.41;100.00
11345;BME280;5727;42.600;23.028;2022-09-20T04:18:56;93802.63;;;8.40;100.00
11345;BME280;5727;42.600;23.028;2022-09-20T04:21:27;93798.06;;;8.37;100.00
11345;BME280;5727;42.600;23.028;2022-09-20T04:24:02;93801.59;;;8.41;100.00
11345;BME280;5727;42.600;23.028;2022-09-20T04:26:40;93815.38;;;8.42;100.00
11345;BME280;5727;42.600;23.028;2022-09-20T04:29:24;93817.25;;;8.41;100.00
11345;BME280;5727;42.600;23.028;2022-09-20T04:31:56;93817.72;;;8.43;100.00
11345;BME280;5727;42.600;23.028;2022-09-20T04:34:33;93818.00;;;8.42;100.00
11345;BME280;5727;42.600;23.028;2022-09-20T04:37:21;93824.31;;;8.41;100.00
11345;BME280;5727;42.600;23.028;2022-09-20T04:39:58;93822.00;;;8.39;100.00
11345;BME280;5727;42.600;23.028;2022-09-20T04:45:59;93822.16;;;8.34;100.00
11345;BME280;5727;42.600;23.028;2022-09-20T04:49:01;93822.59;;;8.36;100.00
11345;BME280;5727;42.600;23.028;2022-09-20T04:55:20;93832.59;;;8.34;100.00
11345;BME280;5727;42.600;23.028;2022-09-20T05:04:15;93826.91;;;8.32;100.00
11345;BME280;5727;42.600;23.028;2022-09-20T05:07:10;93831.66;;;8.30;100.00
11345;BME280;5727;42.600;23.028;2022-09-20T05:09:57;93840.56;;;8.12;100.00
11345;BME280;5727;42.600;23.028;2022-09-20T05:12:54;93836.56;;;8.14;100.00
11345;BME280;5727;42.600;23.028;2022-09-20T05:15:37;93837.78;;;8.00;100.00
11345;BME280;5727;42.600;23.028;2022-09-20T05:21:47;93830.72;;;8.17;100.00
11345;BME280;5727;42.600;23.028;2022-09-20T05:24:24;93833.22;;;8.31;100.00
11345;BME280;5727;42.600;23.028;2022-09-20T05:27:08;93833.06;;;8.45;100.00
11345;BME280;5727;42.600;23.028;2022-09-20T05:29:54;93833.94;;;8.57;100.00
11345;BME280;5727;42.600;23.028;2022-09-20T05:32:28;93843.03;;;8.68;100.00
11345;BME280;5727;42.600;23.028;2022-09-20T05:35:02;93838.22;;;8.79;100.00
11345;BME280;5727;42.600;23.028;2022-09-20T05:37:38;93833.47;;;8.89;100.00
11345;BME280;5727;42.600;23.028;2022-09-20T05:40:17;93840.84;;;8.87;100.00
11345;BME280;5727;42.600;23.028;2022-09-20T05:42:52;93841.94;;;8.78;100.00
11345;BME280;5727;42.600;23.028;2022-09-20T05:45:38;93835.94;;;8.77;100.00
11345;BME280;5727;42.600;23.028;2022-09-20T05:48:12;93829.75;;;8.90;100.00
11345;BME280;5727;42.600;23.028;2022-09-20T05:50:46;93834.66;;;8.92;100.00
11345;BME280;5727;42.600;23.028;2022-09-20T05:53:52;93831.84;;;9.05;100.00
11345;BME280;5727;42.600;23.028;2022-09-20T05:56:32;93835.50;;;9.21;100.00
11345;BME280;5727;42.600;23.028;2022-09-20T05:59:19;93841.81;;;9.20;100.00
11345;BME280;5727;42.600;23.028;2022-09-20T06:01:57;93836.22;;;9.31;100.00
11345;BME280;5727;42.600;23.028;2022-09-20T06:04:29;93837.53;;;9.45;100.00
11345;BME280;5727;42.600;23.028;2022-09-20T06:07:05;93838.63;;;9.53;100.00
11345;BME280;5727;42.600;23.028;2022-09-20T06:10:04;93838.38;;;9.66;100.00
11345;BME280;5727;42.600;23.028;2022-09-20T06:12:48;93845.13;;;9.76;100.00
11345;BME280;5727;42.600;23.028;2022-09-20T06:15:22;93847.00;;;9.67;100.00
11345;BME280;5727;42.600;23.028;2022-09-20T06:17:56;93847.06;;;9.50;100.00
11345;BME280;5727;42.600;23.028;2022-09-20T06:20:29;93838.44;;;9.49;100.00
11345;BME280;5727;42.600;23.028;2022-09-20T06:22:59;93837.34;;;9.59;100.00
11345;BME280;5727;42.600;23.028;2022-09-20T06:25:33;93833.00;;;9.63;100.00
11345;BME280;5727;42.600;23.028;2022-09-20T06:28:10;93832.25;;;9.62;100.00
11345;BME280;5727;42.600;23.028;2022-09-20T06:30:40;93833.13;;;9.66;100.00
11345;BME280;5727;42.600;23.028;2022-09-20T06:33:13;93828.91;;;9.82;100.00
11345;BME280;5727;42.600;23.028;2022-09-20T06:35:45;93832.03;;;9.76;100.00
11345;BME280;5727;42.600;23.028;2022-09-20T06:38:34;93842.34;;;9.72;100.00
11345;BME280;5727;42.600;23.028;2022-09-20T06:41:24;93830.28;;;9.80;100.00
11345;BME280;5727;42.600;23.028;2022-09-20T06:43:55;93838.38;;;9.66;100.00
11345;BME280;5727;42.600;23.028;2022-09-20T06:46:25;93851.03;;;9.64;100.00
11345;BME280;5727;42.600;23.028;2022-09-20T06:48:52;93848.41;;;9.64;100.00
11345;BME280;5727;42.600;23.028;2022-09-20T06:51:19;93847.19;;;9.62;100.00
11345;BME280;5727;42.600;23.028;2022-09-20T06:53:47;93853.72;;;9.76;100.00
11345;BME280;5727;42.600;23.028;2022-09-20T06:56:17;93854.28;;;9.82;100.00
11345;BME280;5727;42.600;23.028;2022-09-20T06:58:46;93842.56;;;9.88;100.00
11345;BME280;5727;42.600;23.028;2022-09-20T07:01:13;93839.09;;;10.04;100.00
11345;BME280;5727;42.600;23.028;2022-09-20T07:03:40;93855.63;;;10.26;100.00
11345;BME280;5727;42.600;23.028;2022-09-20T07:06:08;93850.75;;;10.36;100.00
11345;BME280;5727;42.600;23.028;2022-09-20T07:08:35;93862.13;;;10.40;100.00
11345;BME280;5727;42.600;23.028;2022-09-20T07:11:03;93859.28;;;10.66;100.00
11345;BME280;5727;42.600;23.028;2022-09-20T07:13:30;93862.78;;;10.90;100.00
11345;BME280;5727;42.600;23.028;2022-09-20T07:16:02;93859.88;;;11.16;98.32
11345;BME280;5727;42.600;23.028;2022-09-20T07:18:29;93852.06;;;11.40;94.32
11345;BME280;5727;42.600;23.028;2022-09-20T07:20:58;93863.75;;;11.55;92.79
11345;BME280;5727;42.600;23.028;2022-09-20T07:23:25;93860.22;;;11.71;89.13
11345;BME280;5727;42.600;23.028;2022-09-20T07:25:52;93860.19;;;11.83;89.82
11345;BME280;5727;42.600;23.028;2022-09-20T07:28:19;93851.97;;;12.09;89.89
11345;BME280;5727;42.600;23.028;2022-09-20T07:30:46;93853.66;;;12.41;89.10
11345;BME280;5727;42.600;23.028;2022-09-20T07:33:15;93849.44;;;12.64;87.10
11345;BME280;5727;42.600;23.028;2022-09-20T07:35:46;93856.97;;;12.94;84.41
11345;BME280;5727;42.600;23.028;2022-09-20T07:38:13;93850.22;;;12.93;83.90
11345;BME280;5727;42.600;23.028;2022-09-20T07:40:40;93857.75;;;13.06;82.09
11345;BME280;5727;42.600;23.028;2022-09-20T07:43:07;93855.78;;;12.91;81.98
11345;BME280;5727;42.600;23.028;2022-09-20T07:45:35;93845.59;;;12.89;82.28
11345;BME280;5727;42.600;23.028;2022-09-20T07:48:04;93846.50;;;12.81;81.90
11345;BME280;5727;42.600;23.028;2022-09-20T07:50:33;93848.28;;;12.77;80.99
11345;BME280;5727;42.600;23.028;2022-09-20T07:52:59;93853.97;;;12.52;82.21
11345;BME280;5727;42.600;23.028;2022-09-20T07:55:27;93847.28;;;12.54;82.80
11345;BME280;5727;42.600;23.028;2022-09-20T07:57:55;93849.28;;;12.45;82.14
11345;BME280;5727;42.600;23.028;2022-09-20T08:00:22;93845.47;;;12.43;82.67
11345;BME280;5727;42.600;23.028;2022-09-20T08:02:56;93848.88;;;12.71;79.80
11345;BME280;5727;42.600;23.028;2022-09-20T08:05:24;93843.75;;;12.62;79.39
11345;BME280;5727;42.600;23.028;2022-09-20T08:07:54;93848.72;;;12.79;76.88
11345;BME280;5727;42.600;23.028;2022-09-20T08:10:20;93856.00;;;12.98;76.92
11345;BME280;5727;42.600;23.028;2022-09-20T08:12:47;93856.25;;;13.36;73.84
11345;BME280;5727;42.600;23.028;2022-09-20T08:15:14;93852.78;;;13.48;71.12
11345;BME280;5727;42.600;23.028;2022-09-20T08:17:45;93852.78;;;13.79;71.03
11345;BME280;5727;42.600;23.028;2022-09-20T08:20:12;93855.47;;;13.98;68.77
11345;BME280;5727;42.600;23.028;2022-09-20T08:22:39;93852.81;;;14.14;69.53
11345;BME280;5727;42.600;23.028;2022-09-20T08:25:09;93844.56;;;14.15;63.38
11345;BME280;5727;42.600;23.028;2022-09-20T08:27:35;93851.28;;;14.13;62.62
11345;BME280;5727;42.600;23.028;2022-09-20T08:30:03;93849.19;;;13.87;63.57
11345;BME280;5727;42.600;23.028;2022-09-20T08:32:30;93846.53;;;13.87;65.30
11345;BME280;5727;42.600;23.028;2022-09-20T08:34:57;93838.75;;;13.75;64.44
11345;BME280;5727;42.600;23.028;2022-09-20T08:37:24;93835.69;;;13.89;63.33
11345;BME280;5727;42.600;23.028;2022-09-20T08:39:51;93834.22;;;13.91;61.68
11345;BME280;5727;42.600;23.028;2022-09-20T08:42:23;93836.59;;;13.96;60.52
11345;BME280;5727;42.600;23.028;2022-09-20T08:44:56;93826.31;;;14.41;62.46
11345;BME280;5727;42.600;23.028;2022-09-20T08:47:26;93826.19;;;14.53;59.96
11345;BME280;5727;42.600;23.028;2022-09-20T08:49:56;93828.81;;;14.92;59.18
11345;BME280;5727;42.600;23.028;2022-09-20T08:52:27;93825.72;;;15.09;58.61
11345;BME280;5727;42.600;23.028;2022-09-20T08:54:58;93824.22;;;14.50;59.52
11345;BME280;5727;42.600;23.028;2022-09-20T08:57:30;93820.22;;;14.56;60.15
11345;BME280;5727;42.600;23.028;2022-09-20T08:59:58;93812.94;;;14.50;59.63
11345;BME280;5727;42.600;23.028;2022-09-20T09:02:28;93823.63;;;14.76;59.70
11345;BME280;5727;42.600;23.028;2022-09-20T09:04:56;93810.78;;;14.75;60.27
11345;BME280;5727;42.600;23.028;2022-09-20T09:07:24;93806.41;;;14.82;58.83
11345;BME280;5727;42.600;23.028;2022-09-20T09:09:53;93815.63;;;14.73;58.21
11345;BME280;5727;42.600;23.028;2022-09-20T09:12:23;93813.34;;;14.52;58.19
11345;BME280;5727;42.600;23.028;2022-09-20T09:14:56;93795.94;;;14.66;58.56
11345;BME280;5727;42.600;23.028;2022-09-20T09:17:26;93799.53;;;14.78;56.00
11345;BME280;5727;42.600;23.028;2022-09-20T09:19:57;93793.72;;;14.68;58.37
11345;BME280;5727;42.600;23.028;2022-09-20T09:22:28;93789.81;;;14.62;56.28
11345;BME280;5727;42.600;23.028;2022-09-20T09:27:54;93775.84;;;15.23;57.19
11345;BME280;5727;42.600;23.028;2022-09-20T09:30:25;93768.88;;;15.11;57.36
11345;BME280;5727;42.600;23.028;2022-09-20T09:32:53;93782.31;;;14.84;58.23
11345;BME280;5727;42.600;23.028;2022-09-20T09:35:39;93782.84;;;14.93;59.71
11345;BME280;5727;42.600;23.028;2022-09-20T09:38:16;93780.91;;;14.90;60.17
11345;BME280;5727;42.600;23.028;2022-09-20T09:40:49;93779.28;;;15.04;60.72
11345;BME280;5727;42.600;23.028;2022-09-20T09:43:19;93775.53;;;15.28;60.91
11345;BME280;5727;42.600;23.028;2022-09-20T09:45:49;93787.75;;;15.36;55.33
11345;BME280;5727;42.600;23.028;2022-09-20T09:48:18;93778.91;;;15.25;54.75
11345;BME280;5727;42.600;23.028;2022-09-20T09:50:46;93785.28;;;15.24;55.13
11345;BME280;5727;42.600;23.028;2022-09-20T09:53:15;93778.66;;;15.11;52.65
11345;BME280;5727;42.600;23.028;2022-09-20T09:55:58;93773.88;;;15.20;54.63
11345;BME280;5727;42.600;23.028;2022-09-20T09:58:37;93777.66;;;15.64;56.25
11345;BME280;5727;42.600;23.028;2022-09-20T10:01:20;93773.19;;;15.94;51.35
11345;BME280;5727;42.600;23.028;2022-09-20T10:03:53;93766.53;;;16.04;49.93
11345;BME280;5727;42.600;23.028;2022-09-20T10:06:24;93776.63;;;15.98;51.11
11345;BME280;5727;42.600;23.028;2022-09-20T10:09:05;93772.31;;;15.61;51.92
11345;BME280;5727;42.600;23.028;2022-09-20T10:11:48;93765.75;;;15.51;53.15
11345;BME280;5727;42.600;23.028;2022-09-20T10:14:33;93764.97;;;15.28;53.14
11345;BME280;5727;42.600;23.028;2022-09-20T10:20:04;93771.00;;;15.47;56.29
11345;BME280;5727;42.600;23.028;2022-09-20T10:22:43;93777.22;;;15.39;55.68
11345;BME280;5727;42.600;23.028;2022-09-20T10:25:21;93758.94;;;15.05;56.86
11345;BME280;5727;42.600;23.028;2022-09-20T10:27:59;93760.53;;;15.09;59.57
11345;BME280;5727;42.600;23.028;2022-09-20T10:30:42;93769.66;;;14.93;56.26
11345;BME280;5727;42.600;23.028;2022-09-20T10:33:21;93776.81;;;14.92;56.33
11345;BME280;5727;42.600;23.028;2022-09-20T10:35:59;93782.84;;;14.93;55.22
11345;BME280;5727;42.600;23.028;2022-09-20T10:38:34;93770.66;;;14.85;57.93
11345;BME280;5727;42.600;23.028;2022-09-20T10:41:15;93774.59;;;14.94;54.70
11345;BME280;5727;42.600;23.028;2022-09-20T10:44:09;93769.50;;;15.05;54.57
11345;BME280;5727;42.600;23.028;2022-09-20T10:46:48;93766.84;;;15.27;53.07
11345;BME280;5727;42.600;23.028;2022-09-20T10:49:26;93761.97;;;15.29;52.06
11345;BME280;5727;42.600;23.028;2022-09-20T10:52:04;93767.66;;;15.31;53.31
11345;BME280;5727;42.600;23.028;2022-09-20T10:54:45;93768.84;;;15.34;52.64
11345;BME280;5727;42.600;23.028;2022-09-20T10:57:40;93783.19;;;14.91;51.34
11345;BME280;5727;42.600;23.028;2022-09-20T11:00:18;93766.38;;;14.77;52.01
11345;BME280;5727;42.600;23.028;2022-09-20T11:02:58;93769.22;;;14.49;55.88
11345;BME280;5727;42.600;23.028;2022-09-20T11:05:38;93765.41;;;14.46;59.99
11345;BME280;5727;42.600;23.028;2022-09-20T11:08:09;93770.03;;;14.72;57.51
11345;BME280;5727;42.600;23.028;2022-09-20T11:10:43;93755.13;;;14.60;58.28
11345;BME280;5727;42.600;23.028;2022-09-20T11:13:22;93764.22;;;14.63;56.73
11345;BME280;5727;42.600;23.028;2022-09-20T11:15:57;93757.19;;;14.71;56.88
11345;BME280;5727;42.600;23.028;2022-09-20T11:18:30;93760.28;;;14.53;55.80
11345;BME280;5727;42.600;23.028;2022-09-20T11:21:06;93763.59;;;14.50;55.55
11345;BME280;5727;42.600;23.028;2022-09-20T11:23:42;93760.16;;;14.46;56.98
11345;BME280;5727;42.600;23.028;2022-09-20T11:26:15;93745.19;;;14.73;56.49
11345;BME280;5727;42.600;23.028;2022-09-20T11:28:45;93737.53;;;15.32;57.52
11345;BME280;5727;42.600;23.028;2022-09-20T11:31:18;93738.66;;;15.54;51.41
11345;BME280;5727;42.600;23.028;2022-09-20T11:33:52;93735.59;;;15.78;52.02
11345;BME280;5727;42.600;23.028;2022-09-20T11:36:27;93744.91;;;15.42;50.12
11345;BME280;5727;42.600;23.028;2022-09-20T11:39:01;93738.53;;;15.47;50.52
11345;BME280;5727;42.600;23.028;2022-09-20T11:41:29;93738.53;;;15.47;50.68
11345;BME280;5727;42.600;23.028;2022-09-20T11:44:01;93727.97;;;15.47;50.97
11345;BME280;5727;42.600;23.028;2022-09-20T11:46:35;93717.22;;;15.59;51.10
11345;BME280;5727;42.600;23.028;2022-09-20T11:49:10;93718.22;;;15.77;50.75
11345;BME280;5727;42.600;23.028;2022-09-20T11:52:07;93724.06;;;15.90;49.47
11345;BME280;5727;42.600;23.028;2022-09-20T11:54:56;93715.50;;;16.00;48.02
11345;BME280;5727;42.600;23.028;2022-09-20T11:57:27;93730.88;;;16.20;49.07
11345;BME280;5727;42.600;23.028;2022-09-20T11:59:55;93716.88;;;15.87;46.55
11345;BME280;5727;42.600;23.028;2022-09-20T12:02:31;93722.19;;;15.90;47.01
11345;BME280;5727;42.600;23.028;2022-09-20T12:04:59;93719.03;;;15.55;47.30
11345;BME280;5727;42.600;23.028;2022-09-20T12:07:31;93714.81;;;17.50;43.17
11345;BME280;5727;42.600;23.028;2022-09-20T12:10:02;93700.63;;;20.02;36.92
11345;BME280;5727;42.600;23.028;2022-09-20T12:12:35;93697.31;;;20.74;36.48
11345;BME280;5727;42.600;23.028;2022-09-20T12:15:05;93698.38;;;20.90;34.58
11345;BME280;5727;42.600;23.028;2022-09-20T12:18:28;93701.16;;;20.69;34.15
11345;BME280;5727;42.600;23.028;2022-09-20T12:21:09;93693.88;;;22.20;32.24
11345;BME280;5727;42.600;23.028;2022-09-20T12:26:41;93697.56;;;21.96;31.49
11345;BME280;5727;42.600;23.028;2022-09-20T12:35:55;93698.09;;;20.71;34.93
11345;BME280;5727;42.600;23.028;2022-09-20T12:38:29;93696.78;;;22.33;31.36
11345;BME280;5727;42.600;23.028;2022-09-20T12:41:05;93693.66;;;23.25;29.88
11345;BME280;5727;42.600;23.028;2022-09-20T12:43:35;93683.50;;;23.16;29.55
11345;BME280;5727;42.600;23.028;2022-09-20T12:46:03;93672.22;;;22.45;30.98
11345;BME280;5727;42.600;23.028;2022-09-20T12:48:34;93697.38;;;22.14;32.25
11345;BME280;5727;42.600;23.028;2022-09-20T12:51:03;93684.09;;;22.74;29.96
11345;BME280;5727;42.600;23.028;2022-09-20T12:54:00;93687.22;;;23.22;29.38
11345;BME280;5727;42.600;23.028;2022-09-20T12:56:29;93690.16;;;23.05;29.72
11345;BME280;5727;42.600;23.028;2022-09-20T12:58:59;93681.84;;;24.15;28.86
11345;BME280;5727;42.600;23.028;2022-09-20T13:01:37;93684.84;;;24.95;26.55
11345;BME280;5727;42.600;23.028;2022-09-20T13:04:38;93678.44;;;24.73;27.35
11345;BME280;5727;42.600;23.028;2022-09-20T13:10:21;93683.34;;;24.94;26.58
11345;BME280;5727;42.600;23.028;2022-09-20T13:12:55;93705.00;;;20.65;32.21
11345;BME280;5727;42.600;23.028;2022-09-20T13:15:23;93689.34;;;19.45;35.55
11345;BME280;5727;42.600;23.028;2022-09-20T13:17:52;93686.97;;;20.03;35.81
11345;BME280;5727;42.600;23.028;2022-09-20T13:20:23;93691.94;;;21.43;34.65
11345;BME280;5727;42.600;23.028;2022-09-20T13:22:52;93696.91;;;21.41;32.51
11345;BME280;5727;42.600;23.028;2022-09-20T13:25:20;93685.97;;;22.10;32.37
11345;BME280;5727;42.600;23.028;2022-09-20T13:27:53;93682.59;;;23.26;31.33
11345;BME280;5727;42.600;23.028;2022-09-20T13:30:25;93675.94;;;22.85;30.10
11345;BME280;5727;42.600;23.028;2022-09-20T13:32:52;93695.09;;;21.71;31.83
11345;BME280;5727;42.600;23.028;2022-09-20T13:35:20;93690.50;;;21.75;32.76
11345;BME280;5727;42.600;23.028;2022-09-20T13:37:52;93684.38;;;20.76;34.00
11345;BME280;5727;42.600;23.028;2022-09-20T13:40:22;93671.41;;;21.36;34.18
11345;BME280;5727;42.600;23.028;2022-09-20T13:42:52;93679.94;;;20.52;34.60
11345;BME280;5727;42.600;23.028;2022-09-20T13:45:20;93685.53;;;19.39;37.18
11345;BME280;5727;42.600;23.028;2022-09-20T13:47:49;93678.31;;;19.29;37.93
11345;BME280;5727;42.600;23.028;2022-09-20T13:50:20;93690.47;;;19.51;36.94
11345;BME280;5727;42.600;23.028;2022-09-20T13:52:50;93695.66;;;18.53;39.08
11345;BME280;5727;42.600;23.028;2022-09-20T13:55:35;93678.47;;;18.25;40.55
11345;BME280;5727;42.600;23.028;2022-09-20T13:58:06;93688.84;;;18.52;40.81
11345;BME280;5727;42.600;23.028;2022-09-20T14:00:35;93676.41;;;19.15;38.82
11345;BME280;5727;42.600;23.028;2022-09-20T14:03:03;93668.00;;;19.87;37.90
11345;BME280;5727;42.600;23.028;2022-09-20T14:05:30;93670.94;;;20.21;36.00
11345;BME280;5727;42.600;23.028;2022-09-20T14:07:59;93666.09;;;20.81;35.02
11345;BME280;5727;42.600;23.028;2022-09-20T14:10:29;93660.28;;;20.97;33.59
11345;BME280;5727;42.600;23.028;2022-09-20T14:12:57;93667.56;;;20.21;34.93
11345;BME280;5727;42.600;23.028;2022-09-20T14:15:31;93676.03;;;19.35;34.26
11345;BME280;5727;42.600;23.028;2022-09-20T14:18:00;93665.63;;;20.18;33.41
11345;BME280;5727;42.600;23.028;2022-09-20T14:20:29;93670.63;;;20.84;30.92
11345;BME280;5727;42.600;23.028;2022-09-20T14:22:56;93674.78;;;21.47;30.83
11345;BME280;5727;42.600;23.028;2022-09-20T14:25:24;93674.66;;;21.58;30.16
11345;BME280;5727;42.600;23.028;2022-09-20T14:28:05;93677.41;;;20.96;30.80
11345;BME280;5727;42.600;23.028;2022-09-20T14:30:35;93672.78;;;21.11;30.58